createdAt,value
2024-05-09T00:00:53.672Z,13.19
2024-05-09T00:01:53.605Z,13.22
2024-05-09T00:02:53.577Z,13.19
2024-05-09T00:03:53.616Z,13.10
2024-05-09T00:04:53.592Z,13.20
2024-05-09T00:05:53.600Z,13.12
2024-05-09T00:06:53.443Z,13.11
2024-05-09T00:07:53.451Z,13.10
2024-05-09T00:08:53.397Z,13.11
2024-05-09T00:09:53.383Z,13.08
2024-05-09T00:10:53.455Z,13.10
2024-05-09T00:11:53.527Z,13.07
2024-05-09T00:12:53.309Z,13.01
2024-05-09T00:13:53.309Z,13.01
2024-05-09T00:14:53.252Z,12.95
2024-05-09T00:15:53.233Z,12.96
2024-05-09T00:16:53.264Z,13.01
2024-05-09T00:17:53.425Z,12.97
2024-05-09T00:18:53.339Z,12.97
2024-05-09T00:19:53.192Z,12.90
2024-05-09T00:20:53.160Z,12.96
2024-05-09T00:21:53.100Z,12.96
2024-05-09T00:22:53.079Z,12.93
2024-05-09T00:23:53.045Z,12.75
2024-05-09T00:24:53.029Z,12.87
2024-05-09T00:25:53.052Z,12.83
2024-05-09T00:26:52.980Z,12.82
2024-05-09T00:27:52.949Z,12.89
2024-05-09T00:28:52.969Z,12.77
2024-05-09T00:29:52.954Z,12.79
2024-05-09T00:30:52.887Z,12.78
2024-05-09T00:31:53.004Z,12.79
2024-05-09T00:32:53.039Z,12.77
2024-05-09T00:33:52.903Z,12.71
2024-05-09T00:34:52.806Z,12.79
2024-05-09T00:35:52.764Z,12.78
2024-05-09T00:36:52.741Z,12.82
2024-05-09T00:37:52.808Z,12.79
2024-05-09T00:38:52.691Z,12.75
2024-05-09T00:39:52.667Z,12.79
2024-05-09T00:40:52.670Z,12.77
2024-05-09T00:41:52.623Z,12.75
2024-05-09T00:42:52.594Z,12.72
2024-05-09T00:43:52.628Z,12.71
2024-05-09T00:44:52.551Z,12.77
2024-05-09T00:45:52.525Z,12.78
2024-05-09T00:46:52.541Z,12.70
2024-05-09T00:47:52.706Z,12.67
2024-05-09T00:48:52.556Z,12.64
2024-05-09T00:49:52.467Z,12.60
2024-05-09T00:50:52.463Z,12.60
2024-05-09T00:51:52.386Z,12.59
2024-05-09T00:52:52.398Z,12.59
2024-05-09T00:53:52.339Z,12.62
2024-05-09T00:54:52.319Z,12.60
2024-05-09T00:55:52.318Z,12.59
2024-05-09T00:56:52.270Z,12.54
2024-05-09T00:57:52.254Z,12.62
2024-05-09T00:58:52.286Z,12.59
2024-05-09T00:59:52.208Z,12.57
2024-05-09T01:00:52.243Z,12.60
2024-05-09T01:01:52.362Z,12.47
2024-05-09T01:02:52.193Z,12.39
2024-05-09T01:03:52.297Z,12.38
2024-05-09T01:04:52.179Z,12.52
2024-05-09T01:05:52.291Z,12.50
2024-05-09T01:06:52.067Z,12.47
2024-05-09T01:07:52.040Z,12.53
2024-05-09T01:08:51.997Z,12.54
2024-05-09T01:09:51.962Z,12.52
2024-05-09T01:10:52.131Z,12.34
2024-05-09T01:11:52.025Z,12.42
2024-05-09T01:12:51.901Z,12.34
2024-05-09T01:13:51.929Z,12.42
2024-05-09T01:14:51.840Z,12.42
2024-05-09T01:15:51.825Z,12.42
2024-05-09T01:16:51.835Z,12.37
2024-05-09T01:17:51.953Z,12.37
2024-05-09T01:18:51.883Z,12.24
2024-05-09T01:19:51.821Z,12.29
2024-05-09T01:20:51.737Z,12.24
2024-05-09T01:21:51.693Z,12.23
2024-05-09T01:22:51.732Z,12.17
2024-05-09T01:23:51.685Z,12.23
2024-05-09T01:24:51.608Z,12.19
2024-05-09T01:25:51.661Z,12.24
2024-05-09T01:26:51.558Z,12.21
2024-05-09T01:27:51.562Z,12.19
2024-05-09T01:28:51.540Z,12.19
2024-05-09T01:29:51.491Z,12.17
2024-05-09T01:30:51.472Z,12.19
2024-05-09T01:31:51.573Z,12.20
2024-05-09T01:32:51.656Z,12.20
2024-05-09T01:33:51.489Z,12.19
2024-05-09T01:34:51.387Z,12.20
2024-05-09T01:35:51.347Z,12.14
2024-05-09T01:36:51.325Z,12.17
2024-05-09T01:37:51.339Z,12.23
2024-05-09T01:38:51.292Z,12.23
2024-05-09T01:39:51.256Z,12.14
2024-05-09T01:40:51.275Z,12.20
2024-05-09T01:41:51.209Z,12.21
2024-05-09T01:42:51.182Z,12.23
2024-05-09T01:43:51.196Z,12.17
2024-05-09T01:44:51.133Z,12.16
2024-05-09T01:45:51.153Z,12.13
2024-05-09T01:46:51.131Z,12.05
2024-05-09T01:47:51.234Z,12.10
2024-05-09T01:48:51.263Z,12.10
2024-05-09T01:49:51.151Z,12.10
2024-05-09T01:50:51.046Z,12.14
2024-05-09T01:51:51.001Z,12.13
2024-05-09T01:52:51.089Z,11.99
2024-05-09T01:53:50.962Z,12.07
2024-05-09T01:54:51.034Z,12.05
2024-05-09T01:55:50.966Z,12.10
2024-05-09T01:56:50.859Z,12.04
2024-05-09T01:57:50.848Z,11.95
2024-05-09T01:58:50.827Z,12.04
2024-05-09T01:59:50.780Z,12.01
2024-05-09T02:00:50.817Z,12.01
2024-05-09T02:01:56.746Z,12.05
2024-05-09T02:02:50.860Z,11.96
2024-05-09T02:03:50.978Z,11.94
2024-05-09T02:04:50.748Z,11.98
2024-05-09T02:05:50.660Z,11.94
2024-05-09T02:06:50.615Z,11.98
2024-05-09T02:07:50.636Z,11.98
2024-05-09T02:08:50.568Z,12.01
2024-05-09T02:09:50.565Z,11.96
2024-05-09T02:10:51.019Z,12.09
2024-05-09T02:11:50.594Z,12.10
2024-05-09T02:12:50.474Z,12.04
2024-05-09T02:13:50.490Z,11.96
2024-05-09T02:14:50.437Z,11.99
2024-05-09T02:15:50.399Z,11.91
2024-05-09T02:16:50.387Z,11.90
2024-05-09T02:17:50.612Z,11.86
2024-05-09T02:18:50.518Z,12.05
2024-05-09T02:19:50.323Z,11.88
2024-05-09T02:20:50.321Z,11.88
2024-05-09T02:21:50.267Z,11.96
2024-05-09T02:22:50.260Z,11.94
2024-05-09T02:23:50.220Z,11.90
2024-05-09T02:24:50.193Z,11.95
2024-05-09T02:25:50.214Z,11.85
2024-05-09T02:26:50.145Z,11.96
2024-05-09T02:27:50.122Z,11.82
2024-05-09T02:28:50.107Z,11.94
2024-05-09T02:29:50.074Z,11.94
2024-05-09T02:30:50.058Z,11.94
2024-05-09T02:31:50.142Z,11.86
2024-05-09T02:32:50.216Z,11.79
2024-05-09T02:33:50.337Z,11.80
2024-05-09T02:34:49.982Z,11.78
2024-05-09T02:35:49.930Z,11.79
2024-05-09T02:36:49.913Z,11.79
2024-05-09T02:37:49.934Z,11.76
2024-05-09T02:38:49.876Z,11.72
2024-05-09T02:39:49.836Z,11.72
2024-05-09T02:40:49.840Z,11.64
2024-05-09T02:41:49.801Z,11.61
2024-05-09T02:42:49.764Z,11.61
2024-05-09T02:43:49.777Z,11.58
2024-05-09T02:44:49.710Z,11.54
2024-05-09T02:45:49.695Z,11.60
2024-05-09T02:46:49.742Z,11.57
2024-05-09T02:47:49.936Z,11.58
2024-05-09T02:48:49.762Z,11.60
2024-05-09T02:49:49.617Z,11.57
2024-05-09T02:50:49.689Z,11.61
2024-05-09T02:51:49.543Z,11.55
2024-05-09T02:52:49.528Z,11.72
2024-05-09T02:53:49.504Z,11.75
2024-05-09T02:54:49.479Z,11.67
2024-05-09T02:55:49.477Z,11.73
2024-05-09T02:56:49.437Z,11.73
2024-05-09T02:57:49.511Z,11.75
2024-05-09T02:58:49.450Z,11.72
2024-05-09T02:59:49.362Z,11.70
2024-05-09T03:00:49.424Z,11.69
2024-05-09T03:01:49.431Z,11.62
2024-05-09T03:02:49.466Z,11.62
2024-05-09T03:03:49.440Z,11.54
2024-05-09T03:04:49.436Z,11.58
2024-05-09T03:05:49.278Z,11.57
2024-05-09T03:06:49.183Z,11.58
2024-05-09T03:07:49.308Z,11.58
2024-05-09T03:08:49.157Z,11.57
2024-05-09T03:09:49.141Z,11.57
2024-05-09T03:10:49.138Z,11.58
2024-05-09T03:11:49.205Z,11.49
2024-05-09T03:12:49.061Z,11.46
2024-05-09T03:13:49.060Z,11.46
2024-05-09T03:14:49.004Z,11.49
2024-05-09T03:15:48.986Z,11.51
2024-05-09T03:16:49.019Z,11.47
2024-05-09T03:17:49.224Z,11.49
2024-05-09T03:18:49.042Z,11.46
2024-05-09T03:19:48.972Z,11.46
2024-05-09T03:20:48.870Z,11.54
2024-05-09T03:21:48.838Z,11.57
2024-05-09T03:22:48.877Z,11.54
2024-05-09T03:23:48.814Z,11.58
2024-05-09T03:24:48.772Z,11.55
2024-05-09T03:25:48.788Z,11.58
2024-05-09T03:26:48.711Z,11.54
2024-05-09T03:27:48.692Z,11.60
2024-05-09T03:28:48.694Z,11.70
2024-05-09T03:29:49.037Z,11.73
2024-05-09T03:30:48.621Z,11.75
2024-05-09T03:31:48.671Z,11.78
2024-05-09T03:32:48.814Z,11.76
2024-05-09T03:33:48.735Z,11.78
2024-05-09T03:34:48.546Z,11.73
2024-05-09T03:35:49.093Z,11.78
2024-05-09T03:36:48.494Z,11.75
2024-05-09T03:37:48.476Z,11.72
2024-05-09T03:38:48.454Z,11.69
2024-05-09T03:39:48.417Z,11.69
2024-05-09T03:40:49.290Z,11.79
2024-05-09T03:41:48.364Z,11.79
2024-05-09T03:42:48.336Z,11.76
2024-05-09T03:43:48.348Z,11.88
2024-05-09T03:44:48.299Z,11.88
2024-05-09T03:45:48.287Z,11.91
2024-05-09T03:46:48.260Z,11.94
2024-05-09T03:47:48.594Z,11.94
2024-05-09T03:48:48.252Z,11.75
2024-05-09T03:49:48.165Z,11.73
2024-05-09T03:50:48.356Z,11.60
2024-05-09T03:51:48.128Z,11.47
2024-05-09T03:52:48.140Z,11.40
2024-05-09T03:53:48.096Z,11.46
2024-05-09T03:54:48.060Z,11.40
2024-05-09T03:55:48.051Z,11.29
2024-05-09T03:56:47.995Z,11.24
2024-05-09T03:57:47.979Z,11.15
2024-05-09T03:58:47.976Z,11.10
2024-05-09T03:59:47.935Z,11.18
2024-05-09T04:00:47.986Z,11.18
2024-05-09T04:01:47.986Z,11.24
2024-05-09T04:02:47.936Z,11.27
2024-05-09T04:03:47.963Z,11.33
2024-05-09T04:04:47.974Z,11.37
2024-05-09T04:05:47.860Z,11.44
2024-05-09T04:06:47.752Z,11.43
2024-05-09T04:07:47.770Z,11.44
2024-05-09T04:08:47.735Z,11.42
2024-05-09T04:09:47.695Z,11.47
2024-05-09T04:10:47.700Z,11.57
2024-05-09T04:11:47.786Z,11.55
2024-05-09T04:12:47.624Z,11.58
2024-05-09T04:13:47.641Z,11.55
2024-05-09T04:14:47.565Z,11.51
2024-05-09T04:15:47.542Z,11.39
2024-05-09T04:16:47.616Z,11.43
2024-05-09T04:17:47.865Z,11.39
2024-05-09T04:18:47.563Z,11.29
2024-05-09T04:19:47.494Z,11.29
2024-05-09T04:20:47.498Z,11.15
2024-05-09T04:21:47.415Z,11.14
2024-05-09T04:22:47.462Z,11.18
2024-05-09T04:23:47.406Z,11.19
2024-05-09T04:24:47.377Z,11.19
2024-05-09T04:25:47.330Z,11.32
2024-05-09T04:26:47.282Z,11.33
2024-05-09T04:27:47.259Z,11.35
2024-05-09T04:28:47.319Z,11.35
2024-05-09T04:29:47.203Z,11.49
2024-05-09T04:30:47.224Z,11.40
2024-05-09T04:31:47.208Z,11.40
2024-05-09T04:32:47.359Z,11.43
2024-05-09T04:33:47.240Z,11.57
2024-05-09T04:34:47.154Z,11.55
2024-05-09T04:35:47.108Z,11.58
2024-05-09T04:36:47.054Z,11.62
2024-05-09T04:37:47.045Z,11.72
2024-05-09T04:38:47.010Z,11.73
2024-05-09T04:39:46.975Z,11.75
2024-05-09T04:40:46.953Z,11.78
2024-05-09T04:41:46.926Z,11.80
2024-05-09T04:42:46.894Z,11.76
2024-05-09T04:43:46.899Z,11.94
2024-05-09T04:44:46.838Z,11.95
2024-05-09T04:45:46.823Z,11.85
2024-05-09T04:46:46.849Z,11.96
2024-05-09T04:47:47.030Z,11.85
2024-05-09T04:48:46.907Z,11.95
2024-05-09T04:49:46.816Z,11.79
2024-05-09T04:50:46.779Z,11.86
2024-05-09T04:51:46.674Z,11.73
2024-05-09T04:52:46.705Z,11.79
2024-05-09T04:53:46.661Z,11.76
2024-05-09T04:54:46.644Z,11.78
2024-05-09T04:55:46.672Z,11.76
2024-05-09T04:56:46.601Z,11.80
2024-05-09T04:57:46.540Z,11.78
2024-05-09T04:58:46.632Z,11.79
2024-05-09T04:59:46.487Z,11.85
2024-05-09T05:00:46.534Z,11.90
2024-05-09T05:01:46.545Z,11.85
2024-05-09T05:02:46.482Z,11.96
2024-05-09T05:03:46.669Z,11.99
2024-05-09T05:04:46.519Z,12.04
2024-05-09T05:05:46.679Z,12.07
2024-05-09T05:06:46.323Z,12.07
2024-05-09T05:07:46.353Z,12.07
2024-05-09T05:08:46.284Z,12.17
2024-05-09T05:09:46.265Z,12.28
2024-05-09T05:10:46.958Z,12.16
2024-05-09T05:11:46.293Z,12.19
2024-05-09T05:12:46.176Z,12.17
2024-05-09T05:13:46.197Z,12.34
2024-05-09T05:14:46.131Z,12.32
2024-05-09T05:15:46.114Z,12.35
2024-05-09T05:16:46.095Z,12.37
2024-05-09T05:17:46.188Z,12.41
2024-05-09T05:18:46.131Z,12.34
2024-05-09T05:19:46.216Z,12.39
2024-05-09T05:20:46.156Z,12.46
2024-05-09T05:21:46.059Z,12.50
2024-05-09T05:22:45.993Z,12.49
2024-05-09T05:23:45.946Z,12.53
2024-05-09T05:24:45.893Z,12.47
2024-05-09T05:25:45.883Z,12.50
2024-05-09T05:26:45.985Z,12.52
2024-05-09T05:27:45.814Z,12.53
2024-05-09T05:28:45.816Z,12.52
2024-05-09T05:29:45.783Z,12.54
2024-05-09T05:30:45.766Z,12.47
2024-05-09T05:31:45.815Z,12.52
2024-05-09T05:32:45.835Z,12.52
2024-05-09T05:33:45.754Z,12.53
2024-05-09T05:34:45.721Z,12.50
2024-05-09T05:35:45.628Z,12.42
2024-05-09T05:36:45.666Z,12.49
2024-05-09T05:37:45.650Z,12.50
2024-05-09T05:38:45.696Z,12.52
2024-05-09T05:39:45.553Z,12.53
2024-05-09T05:40:45.589Z,12.57
2024-05-09T05:41:45.481Z,12.53
2024-05-09T05:42:45.454Z,12.54
2024-05-09T05:43:45.492Z,12.45
2024-05-09T05:44:45.421Z,12.52
2024-05-09T05:45:45.407Z,12.52
2024-05-09T05:46:45.437Z,12.53
2024-05-09T05:47:45.600Z,12.52
2024-05-09T05:48:45.470Z,12.52
2024-05-09T05:49:45.332Z,12.56
2024-05-09T05:50:45.372Z,12.60
2024-05-09T05:51:45.241Z,12.70
2024-05-09T05:52:45.303Z,12.65
2024-05-09T05:53:45.302Z,12.70
2024-05-09T05:54:45.173Z,12.72
2024-05-09T05:55:45.258Z,12.72
2024-05-09T05:56:45.168Z,12.67
2024-05-09T05:57:45.126Z,12.72
2024-05-09T05:58:45.176Z,12.75
2024-05-09T05:59:45.097Z,12.83
2024-05-09T06:00:45.214Z,12.75
2024-05-09T06:01:45.232Z,12.75
2024-05-09T06:02:45.247Z,12.79
2024-05-09T06:03:45.068Z,12.82
2024-05-09T06:04:45.063Z,12.79
2024-05-09T06:05:44.959Z,12.79
2024-05-09T06:06:44.915Z,12.90
2024-05-09T06:07:44.907Z,12.95
2024-05-09T06:08:45.009Z,12.97
2024-05-09T06:09:47.497Z,13.00
2024-05-09T06:10:45.003Z,12.95
2024-05-09T06:11:44.802Z,13.08
2024-05-09T06:12:44.760Z,13.01
2024-05-09T06:13:44.810Z,13.14
2024-05-09T06:14:44.719Z,13.04
2024-05-09T06:15:44.678Z,13.04
2024-05-09T06:16:44.680Z,13.11
2024-05-09T06:17:45.017Z,13.07
2024-05-09T06:18:44.743Z,13.15
2024-05-09T06:19:44.804Z,13.23
2024-05-09T06:20:44.724Z,13.17
2024-05-09T06:21:44.545Z,13.23
2024-05-09T06:22:44.533Z,13.23
2024-05-09T06:23:44.504Z,13.32
2024-05-09T06:24:44.468Z,13.25
2024-05-09T06:25:44.489Z,13.41
2024-05-09T06:26:44.459Z,13.23
2024-05-09T06:27:44.409Z,13.32
2024-05-09T06:28:44.497Z,13.36
2024-05-09T06:29:44.359Z,13.28
2024-05-09T06:30:44.356Z,13.32
2024-05-09T06:31:44.389Z,13.36
2024-05-09T06:32:44.400Z,13.41
2024-05-09T06:33:44.374Z,13.45
2024-05-09T06:34:44.405Z,13.39
2024-05-09T06:35:44.539Z,13.52
2024-05-09T06:36:44.194Z,13.60
2024-05-09T06:37:44.411Z,13.48
2024-05-09T06:38:44.233Z,13.57
2024-05-09T06:39:44.106Z,13.49
2024-05-09T06:40:44.775Z,13.55
2024-05-09T06:41:44.135Z,13.67
2024-05-09T06:42:44.036Z,13.63
2024-05-09T06:43:44.052Z,13.73
2024-05-09T06:44:43.990Z,13.67
2024-05-09T06:45:43.990Z,13.67
2024-05-09T06:46:43.988Z,13.69
2024-05-09T06:47:44.080Z,13.70
2024-05-09T06:48:44.100Z,13.88
2024-05-09T06:49:43.929Z,13.84
2024-05-09T06:50:43.876Z,13.91
2024-05-09T06:51:43.831Z,13.92
2024-05-09T06:52:43.810Z,14.06
2024-05-09T06:53:43.848Z,13.95
2024-05-09T06:54:43.758Z,14.06
2024-05-09T06:55:43.735Z,14.06
2024-05-09T06:56:43.744Z,14.09
2024-05-09T06:57:43.702Z,14.09
2024-05-09T06:58:43.667Z,14.18
2024-05-09T06:59:43.723Z,14.24
2024-05-09T07:00:43.744Z,14.22
2024-05-09T07:01:43.597Z,14.42
2024-05-09T07:02:43.769Z,14.43
2024-05-09T07:03:43.641Z,14.52
2024-05-09T07:04:43.599Z,14.54
2024-05-09T07:05:43.626Z,14.50
2024-05-09T07:06:43.482Z,14.58
2024-05-09T07:07:43.458Z,14.58
2024-05-09T07:08:43.462Z,14.60
2024-05-09T07:09:43.421Z,14.57
2024-05-09T07:10:43.452Z,14.78
2024-05-09T07:11:43.496Z,14.73
2024-05-09T07:12:43.344Z,14.89
2024-05-09T07:13:43.327Z,14.96
2024-05-09T07:14:43.397Z,14.96
2024-05-09T07:15:43.290Z,14.94
2024-05-09T07:16:43.258Z,14.98
2024-05-09T07:17:43.455Z,15.03
2024-05-09T07:18:43.488Z,14.91
2024-05-09T07:19:43.221Z,14.91
2024-05-09T07:20:43.263Z,14.94
2024-05-09T07:21:43.139Z,15.09
2024-05-09T07:22:43.118Z,15.03
2024-05-09T07:23:45.407Z,15.11
2024-05-09T07:24:43.067Z,15.13
2024-05-09T07:25:43.086Z,15.25
2024-05-09T07:26:43.049Z,15.31
2024-05-09T07:27:43.010Z,15.41
2024-05-09T07:28:42.985Z,15.49
2024-05-09T07:29:43.016Z,15.51
2024-05-09T07:30:42.940Z,15.50
2024-05-09T07:31:42.914Z,15.44
2024-05-09T07:32:43.035Z,15.43
2024-05-09T07:33:42.966Z,15.47
2024-05-09T07:34:42.871Z,15.59
2024-05-09T07:35:42.959Z,15.53
2024-05-09T07:36:42.801Z,15.50
2024-05-09T07:37:42.775Z,15.64
2024-05-09T07:38:42.862Z,15.62
2024-05-09T07:39:42.735Z,15.68
2024-05-09T07:40:42.708Z,15.80
2024-05-09T07:41:42.724Z,15.86
2024-05-09T07:42:42.662Z,15.94
2024-05-09T07:43:42.644Z,16.01
2024-05-09T07:44:42.638Z,16.14
2024-05-09T07:45:50.632Z,16.08
2024-05-09T07:47:44.971Z,16.05
2024-05-09T07:49:12.476Z,16.21
2024-05-09T07:51:32.154Z,16.31
2024-05-09T07:53:34.293Z,16.42
2024-05-09T07:53:46.061Z,16.38
2024-05-09T07:54:42.555Z,16.48
2024-05-09T07:55:42.586Z,16.35
2024-05-09T07:56:42.512Z,16.35
2024-05-09T07:57:42.358Z,16.48
2024-05-09T07:58:42.307Z,16.56
2024-05-09T07:59:42.284Z,16.68
2024-05-09T08:00:42.362Z,16.63
2024-05-09T08:01:42.407Z,16.64
2024-05-09T08:02:42.263Z,16.76
2024-05-09T08:03:42.340Z,16.79
2024-05-09T08:04:42.292Z,16.81
2024-05-09T08:05:42.275Z,16.86
2024-05-09T08:06:42.218Z,16.89
2024-05-09T08:07:42.118Z,16.93
2024-05-09T08:08:42.133Z,16.86
2024-05-09T08:09:42.147Z,16.82
2024-05-09T08:10:42.180Z,16.89
2024-05-09T08:11:42.138Z,16.81
2024-05-09T08:12:42.001Z,16.78
2024-05-09T08:13:41.972Z,16.82
2024-05-09T08:14:41.978Z,16.89
2024-05-09T08:15:41.969Z,16.93
2024-05-09T08:16:41.905Z,16.89
2024-05-09T08:17:41.971Z,17.01
2024-05-09T08:18:42.027Z,16.85
2024-05-09T08:19:41.877Z,16.83
2024-05-09T08:20:41.817Z,16.94
2024-05-09T08:21:41.838Z,16.97
2024-05-09T08:22:41.771Z,17.06
2024-05-09T08:23:41.763Z,17.16
2024-05-09T08:24:41.794Z,17.23
2024-05-09T08:25:41.718Z,17.21
2024-05-09T08:26:41.701Z,17.15
2024-05-09T08:27:41.731Z,17.19
2024-05-09T08:28:41.636Z,17.30
2024-05-09T08:29:41.664Z,17.36
2024-05-09T08:30:41.692Z,17.38
2024-05-09T08:31:41.727Z,17.33
2024-05-09T08:32:41.625Z,17.34
2024-05-09T08:33:41.715Z,17.46
2024-05-09T08:34:41.590Z,17.51
2024-05-09T08:35:41.490Z,17.55
2024-05-09T08:36:41.584Z,17.66
2024-05-09T08:37:41.580Z,17.66
2024-05-09T08:38:41.430Z,17.64
2024-05-09T08:39:41.454Z,17.66
2024-05-09T08:40:41.432Z,17.58
2024-05-09T08:41:41.366Z,17.64
2024-05-09T08:42:41.389Z,17.63
2024-05-09T08:43:42.135Z,17.55
2024-05-09T08:44:41.309Z,17.66
2024-05-09T08:45:41.324Z,17.62
2024-05-09T08:46:41.248Z,17.64
2024-05-09T08:47:41.391Z,17.68
2024-05-09T08:48:41.402Z,17.66
2024-05-09T08:49:41.741Z,17.74
2024-05-09T08:50:41.419Z,17.70
2024-05-09T08:51:41.200Z,17.78
2024-05-09T08:52:41.120Z,17.86
2024-05-09T08:53:41.109Z,17.74
2024-05-09T08:54:41.168Z,17.84
2024-05-09T08:55:43.388Z,17.81
2024-05-09T08:56:41.051Z,17.79
2024-05-09T08:57:41.054Z,17.82
2024-05-09T08:58:40.995Z,17.87
2024-05-09T08:59:40.974Z,17.89
2024-05-09T09:00:41.022Z,17.95
2024-05-09T09:01:41.492Z,17.95
2024-05-09T09:02:40.974Z,17.99
2024-05-09T09:03:41.051Z,18.05
2024-05-09T09:04:40.945Z,18.20
2024-05-09T09:05:41.115Z,18.29
2024-05-09T09:06:40.874Z,18.44
2024-05-09T09:07:40.804Z,18.51
2024-05-09T09:08:40.801Z,18.60
2024-05-09T09:09:40.824Z,18.65
2024-05-09T09:10:40.808Z,18.80
2024-05-09T09:11:40.790Z,18.92
2024-05-09T09:12:40.738Z,18.94
2024-05-09T09:13:40.686Z,19.06
2024-05-09T09:14:40.649Z,18.99
2024-05-09T09:15:40.671Z,18.91
2024-05-09T09:16:40.615Z,18.88
2024-05-09T09:17:40.632Z,18.90
2024-05-09T09:18:40.930Z,18.80
2024-05-09T09:19:40.637Z,18.73
2024-05-09T09:20:40.624Z,18.69
2024-05-09T09:21:40.591Z,18.73
2024-05-09T09:22:40.498Z,18.80
2024-05-09T09:23:40.473Z,18.81
2024-05-09T09:24:40.483Z,18.85
2024-05-09T09:25:40.432Z,18.90
2024-05-09T09:26:40.400Z,18.91
2024-05-09T09:27:40.425Z,18.85
2024-05-09T09:28:40.364Z,18.88
2024-05-09T09:29:40.345Z,18.91
2024-05-09T09:30:40.540Z,18.87
2024-05-09T09:31:40.342Z,18.72
2024-05-09T09:32:40.377Z,18.75
2024-05-09T09:33:40.382Z,18.70
2024-05-09T09:34:40.312Z,18.67
2024-05-09T09:35:40.266Z,18.73
2024-05-09T09:36:40.219Z,18.78
2024-05-09T09:37:40.187Z,18.90
2024-05-09T09:38:40.152Z,19.06
2024-05-09T09:39:40.142Z,19.14
2024-05-09T09:40:44.804Z,19.26
2024-05-09T09:41:40.097Z,19.26
2024-05-09T09:42:40.105Z,19.40
2024-05-09T09:43:40.051Z,19.41
2024-05-09T09:44:42.203Z,19.55
2024-05-09T09:45:40.035Z,19.56
2024-05-09T09:46:40.015Z,19.62
2024-05-09T09:47:40.183Z,19.71
2024-05-09T09:48:40.122Z,19.66
2024-05-09T09:49:39.964Z,19.74
2024-05-09T09:50:39.924Z,19.62
2024-05-09T09:51:39.914Z,19.61
2024-05-09T09:52:39.866Z,19.56
2024-05-09T09:53:39.868Z,19.61
2024-05-09T09:54:39.840Z,19.62
2024-05-09T09:55:39.807Z,19.44
2024-05-09T09:56:39.779Z,19.41
2024-05-09T09:57:39.849Z,19.43
2024-05-09T09:58:39.752Z,19.41
2024-05-09T09:59:39.714Z,19.43
2024-05-09T10:00:39.825Z,19.26
2024-05-09T10:01:39.740Z,19.32
2024-05-09T10:02:39.714Z,19.31
2024-05-09T10:03:39.899Z,19.40
2024-05-09T10:04:39.724Z,19.41
2024-05-09T10:05:42.160Z,19.32
2024-05-09T10:06:39.702Z,19.26
2024-05-09T10:07:39.552Z,19.39
2024-05-09T10:08:39.556Z,19.37
2024-05-09T10:09:39.569Z,19.46
2024-05-09T10:10:39.673Z,19.65
2024-05-09T10:11:45.208Z,19.77
2024-05-09T10:12:39.532Z,19.78
2024-05-09T10:13:39.427Z,19.68
2024-05-09T10:14:39.407Z,19.78
2024-05-09T10:15:39.403Z,19.87
2024-05-09T10:16:39.374Z,19.62
2024-05-09T10:17:39.462Z,19.69
2024-05-09T10:18:39.674Z,19.65
2024-05-09T10:19:39.345Z,19.84
2024-05-09T10:20:39.285Z,19.77
2024-05-09T10:21:39.290Z,19.77
2024-05-09T10:22:39.250Z,19.65
2024-05-09T10:23:39.228Z,19.86
2024-05-09T10:24:39.238Z,19.77
2024-05-09T10:25:39.202Z,19.78
2024-05-09T10:26:39.163Z,19.83
2024-05-09T10:27:39.174Z,19.69
2024-05-09T10:28:39.135Z,19.69
2024-05-09T10:29:39.107Z,19.74
2024-05-09T10:30:39.961Z,19.86
2024-05-09T10:31:39.164Z,19.98
2024-05-09T10:32:39.096Z,20.21
2024-05-09T10:33:39.349Z,20.26
2024-05-09T10:34:39.120Z,20.51
2024-05-09T10:35:38.984Z,20.62
2024-05-09T10:36:39.013Z,20.64
2024-05-09T10:37:38.951Z,20.62
2024-05-09T10:38:38.921Z,20.77
2024-05-09T10:39:39.068Z,20.79
2024-05-09T10:40:38.994Z,20.79
2024-05-09T10:41:38.871Z,20.80
2024-05-09T10:42:38.855Z,20.82
2024-05-09T10:43:38.833Z,20.73
2024-05-09T10:44:38.806Z,20.61
2024-05-09T10:45:38.819Z,20.52
2024-05-09T10:46:38.751Z,20.48
2024-05-09T10:47:38.819Z,20.35
2024-05-09T10:48:39.059Z,20.26
2024-05-09T10:49:38.757Z,20.18
2024-05-09T10:50:38.691Z,19.91
2024-05-09T10:51:38.704Z,19.99
2024-05-09T10:52:38.636Z,20.02
2024-05-09T10:53:38.620Z,20.20
2024-05-09T10:54:38.670Z,20.24
2024-05-09T10:55:38.576Z,20.32
2024-05-09T10:56:38.556Z,20.35
2024-05-09T10:57:38.616Z,20.35
2024-05-09T10:58:38.515Z,20.52
2024-05-09T10:59:38.505Z,20.55
2024-05-09T11:00:38.613Z,20.43
2024-05-09T11:01:38.566Z,20.31
2024-05-09T11:02:38.611Z,20.41
2024-05-09T11:03:39.243Z,20.48
2024-05-09T11:04:38.475Z,20.47
2024-05-09T11:05:38.606Z,20.38
2024-05-09T11:06:38.530Z,20.33
2024-05-09T11:07:38.337Z,20.33
2024-05-09T11:08:38.311Z,20.20
2024-05-09T11:09:38.366Z,20.20
2024-05-09T11:10:38.298Z,20.29
2024-05-09T11:11:38.293Z,20.38
2024-05-09T11:12:38.264Z,20.35
2024-05-09T11:13:38.300Z,20.42
2024-05-09T11:14:38.203Z,20.38
2024-05-09T11:15:38.200Z,20.35
2024-05-09T11:16:38.160Z,20.39
2024-05-09T11:17:38.202Z,20.24
2024-05-09T11:18:39.375Z,20.14
2024-05-09T11:19:38.243Z,20.08
2024-05-09T11:20:38.314Z,19.86
2024-05-09T11:21:38.079Z,19.65
2024-05-09T11:22:38.034Z,19.66
2024-05-09T11:23:38.022Z,19.58
2024-05-09T11:24:38.032Z,19.55
2024-05-09T11:25:37.972Z,19.59
2024-05-09T11:26:37.955Z,19.56
2024-05-09T11:27:38.020Z,19.39
2024-05-09T11:28:37.917Z,19.50
2024-05-09T11:29:37.906Z,19.56
2024-05-09T11:30:37.947Z,19.63
2024-05-09T11:31:37.946Z,19.84
2024-05-09T11:32:38.048Z,20.01
2024-05-09T11:33:38.061Z,20.20
2024-05-09T11:34:37.854Z,20.48
2024-05-09T11:35:37.772Z,20.57
2024-05-09T11:36:37.808Z,20.79
2024-05-09T11:37:37.736Z,20.85
2024-05-09T11:38:37.707Z,20.77
2024-05-09T11:39:37.746Z,20.85
2024-05-09T11:40:37.736Z,20.77
2024-05-09T11:41:37.647Z,20.73
2024-05-09T11:42:37.639Z,20.77
2024-05-09T11:43:37.608Z,20.82
2024-05-09T11:44:37.600Z,20.74
2024-05-09T11:45:37.731Z,20.80
2024-05-09T11:46:37.558Z,20.79
2024-05-09T11:47:37.569Z,20.77
2024-05-09T11:48:37.799Z,20.74
2024-05-09T11:49:37.499Z,20.66
2024-05-09T11:50:37.568Z,20.48
2024-05-09T11:51:37.497Z,20.42
2024-05-09T11:52:37.432Z,20.33
2024-05-09T11:53:37.427Z,20.14
2024-05-09T11:54:37.432Z,20.01
2024-05-09T11:55:37.365Z,19.95
2024-05-09T11:56:37.344Z,19.94
2024-05-09T11:57:37.364Z,19.81
2024-05-09T11:58:37.329Z,19.87
2024-05-09T11:59:37.281Z,19.98
2024-05-09T12:00:38.017Z,20.10
2024-05-09T12:01:37.418Z,20.20
2024-05-09T12:02:37.263Z,20.35
2024-05-09T12:03:37.258Z,20.39
2024-05-09T12:04:37.298Z,20.47
2024-05-09T12:05:37.204Z,20.58
2024-05-09T12:06:37.162Z,20.62
2024-05-09T12:07:37.122Z,20.64
2024-05-09T12:08:37.103Z,20.67
2024-05-09T12:09:37.119Z,20.67
2024-05-09T12:10:37.507Z,20.67
2024-05-09T12:11:37.055Z,20.66
2024-05-09T12:12:37.498Z,20.73
2024-05-09T12:13:37.034Z,20.77
2024-05-09T12:14:36.981Z,20.77
2024-05-09T12:15:38.180Z,20.77
2024-05-09T12:16:37.009Z,20.77
2024-05-09T12:17:37.021Z,20.66
2024-05-09T12:18:36.960Z,20.73
2024-05-09T12:19:37.050Z,20.73
2024-05-09T12:20:39.390Z,20.72
2024-05-09T12:21:36.871Z,20.85
2024-05-09T12:22:36.821Z,20.77
2024-05-09T12:23:36.805Z,20.89
2024-05-09T12:24:36.810Z,20.82
2024-05-09T12:25:36.758Z,20.80
2024-05-09T12:26:36.744Z,20.88
2024-05-09T12:27:36.791Z,20.85
2024-05-09T12:28:36.701Z,20.89
2024-05-09T12:29:38.668Z,20.88
2024-05-09T12:30:39.682Z,20.84
2024-05-09T12:31:36.699Z,20.82
2024-05-09T12:32:36.749Z,20.48
2024-05-09T12:33:36.718Z,20.35
2024-05-09T12:34:36.663Z,20.31
2024-05-09T12:35:36.612Z,20.28
2024-05-09T12:36:36.576Z,20.35
2024-05-09T12:37:36.520Z,20.55
2024-05-09T12:38:36.516Z,20.67
2024-05-09T12:39:36.510Z,20.77
2024-05-09T12:40:38.563Z,20.76
2024-05-09T12:41:36.442Z,20.69
2024-05-09T12:42:36.453Z,20.79
2024-05-09T12:43:36.436Z,20.80
2024-05-09T12:44:36.375Z,20.74
2024-05-09T12:45:36.482Z,20.64
2024-05-09T12:46:36.351Z,20.47
2024-05-09T12:47:36.385Z,20.33
2024-05-09T12:48:36.588Z,20.29
2024-05-09T12:49:36.460Z,20.28
2024-05-09T12:50:36.907Z,20.28
2024-05-09T12:51:36.279Z,20.26
2024-05-09T12:52:36.215Z,20.21
2024-05-09T12:53:36.204Z,20.28
2024-05-09T12:54:36.232Z,20.31
2024-05-09T12:55:44.091Z,20.32